Collinsville, Alabama
Current Conditions -  °F | °C
As of 2:35 PM on Saturday 25 Oct 2014 (Local Time) from K4A9 Reporting Station
Clear Clear  
Wind Chill: 73°   Ceiling: Unl
Heat Index: 73°   Visibility: 10mi
Dew Point: 46°   Wind: 6mph
Humidity: 38%   Direction: 340°NNW
Pressure: 30.04"   Gusts: NA
Location:  34.26°N, 85.86°W
Report Text: K4A9 251935Z AUTO 34005KT 10SM CLR 23/08 A3004 RMK AO2
Loading
Personal Weather Stations






























Interactive Weather Map
Tropical Storm Tracking
New forecast layout! Learn more

10-Day Weather Forecast

Advertisements
Track Severe Weather on mobile